Terminal Aerodrome Forecast
Issued by NWS

Home | Current Version | Previous Version | Text Only | Print | Product List | Glossary On
Versions: 1 2 3 4 5 6 7 8 9 10 11 12 13
000
FTAK31 PAJN 240500
TAFAKT
TAF
PAKT 240529Z 2406/2506 00000KT P6SM FEW030 BKN200
     FM241800 13005KT P6SM VCSH FEW020 BKN050 OVC080
     FM242100 14008KT P6SM -SHRA SCT020 OVC050
      AMD LTD TO CLD VIS AND WIND 2406/2415=

USA.gov is the U.S. government's official web portal to all federal, state and local government web resources and services.